UNEE/KEJ METAR and TAF weather

Enter ICAO airport designator
Station Type Date Time Source
UNEE METAR 2022/06/28 08:30 UTC NOAA

UNEE 280830Z 21005MPS 9999 SCT035 19/12 Q1007 R23/CLRD60 NOSIG RMK QFE732


Station Type Date Time Source
UNEE Decoded METAR 2022/06/28 08:30 UTC NOAA

Kemerovo, Russia (UNEE) 55-19-48N 086-04-48E
Jun 28, 2022 - 04:30 AM EDT / 2022.06.28 0830 UTC
Wind: from the SSW (210 degrees) at 11 MPH (10 KT):0
Visibility: greater than 7 mile(s):0
Sky conditions: partly cloudy
Temperature: 66 F (19 C)
Dew Point: 53 F (12 C)
Relative Humidity: 63%
Pressure (altimeter): 29.74 in. Hg (1007 hPa)
ob: UNEE 280830Z 21005MPS 9999 SCT035 19/12 Q1007 R23/CLRD60 NOSIG RMK QFE732
cycle: 8

Station Type Date Time Source
UNEE TAF 2022/06/28 09:24 UTC NOAA

TAF UNEE 280800Z 2809/2909 22007G15MPS 9999 BKN030CB
BECMG 2811/2814 18003G08MPS
BECMG 2902/2904 16006G12MPS

Example: see airport list